sensor_id;sensor_type;location;lat;lon;timestamp;pressure;altitude;pressure_sealevel;temperature;humidity
81608;BME280;71022;48.122;11.576;2023-10-09T00:02:10;96269.28;;;15.53;70.22
81608;BME280;71022;48.122;11.576;2023-10-09T00:04:38;96273.84;;;15.45;70.93
81608;BME280;71022;48.122;11.576;2023-10-09T00:07:09;96276.53;;;15.41;70.97
81608;BME280;71022;48.122;11.576;2023-10-09T00:09:38;96269.03;;;15.42;70.64
81608;BME280;71022;48.122;11.576;2023-10-09T00:12:19;96276.34;;;15.50;70.65
81608;BME280;71022;48.122;11.576;2023-10-09T00:14:51;96267.47;;;15.41;70.72
81608;BME280;71022;48.122;11.576;2023-10-09T00:17:35;96263.81;;;15.37;71.05
81608;BME280;71022;48.122;11.576;2023-10-09T00:20:05;96261.47;;;15.39;70.98
81608;BME280;71022;48.122;11.576;2023-10-09T00:22:35;96254.69;;;15.36;71.20
81608;BME280;71022;48.122;11.576;2023-10-09T00:25:08;96240.22;;;15.24;71.49
81608;BME280;71022;48.122;11.576;2023-10-09T00:27:40;96241.34;;;15.42;71.12
81608;BME280;71022;48.122;11.576;2023-10-09T00:30:15;96232.44;;;15.29;71.11
81608;BME280;71022;48.122;11.576;2023-10-09T00:32:46;96227.69;;;15.30;70.79
81608;BME280;71022;48.122;11.576;2023-10-09T00:35:26;96225.72;;;15.30;71.35
81608;BME280;71022;48.122;11.576;2023-10-09T00:38:12;96215.16;;;15.36;70.68
81608;BME280;71022;48.122;11.576;2023-10-09T00:40:49;96221.41;;;15.33;70.53
81608;BME280;71022;48.122;11.576;2023-10-09T00:43:35;96218.59;;;15.29;71.28
81608;BME280;71022;48.122;11.576;2023-10-09T00:46:06;96216.44;;;15.19;71.72
81608;BME280;71022;48.122;11.576;2023-10-09T00:48:56;96215.03;;;15.29;71.63
81608;BME280;71022;48.122;11.576;2023-10-09T00:51:24;96203.84;;;15.22;71.69
81608;BME280;71022;48.122;11.576;2023-10-09T00:53:57;96201.50;;;15.24;71.21
81608;BME280;71022;48.122;11.576;2023-10-09T00:56:44;96200.50;;;15.13;71.47
81608;BME280;71022;48.122;11.576;2023-10-09T00:59:15;96199.22;;;15.07;71.61
81608;BME280;71022;48.122;11.576;2023-10-09T01:01:43;96191.22;;;15.24;71.14
81608;BME280;71022;48.122;11.576;2023-10-09T01:04:31;96197.31;;;15.11;71.75
81608;BME280;71022;48.122;11.576;2023-10-09T01:06:59;96199.63;;;15.09;71.65
81608;BME280;71022;48.122;11.576;2023-10-09T01:09:35;96191.47;;;15.16;71.37
81608;BME280;71022;48.122;11.576;2023-10-09T01:12:05;96183.59;;;15.18;71.25
81608;BME280;71022;48.122;11.576;2023-10-09T01:14:33;96176.78;;;15.12;71.49
81608;BME280;71022;48.122;11.576;2023-10-09T01:17:04;96180.53;;;15.23;71.09
81608;BME280;71022;48.122;11.576;2023-10-09T01:19:51;96181.03;;;15.28;70.71
81608;BME280;71022;48.122;11.576;2023-10-09T01:22:23;96181.78;;;15.25;70.77
81608;BME280;71022;48.122;11.576;2023-10-09T01:24:50;96177.81;;;15.26;70.78
81608;BME280;71022;48.122;11.576;2023-10-09T01:27:18;96173.94;;;15.31;70.96
81608;BME280;71022;48.122;11.576;2023-10-09T01:29:50;96171.94;;;15.28;70.98
81608;BME280;71022;48.122;11.576;2023-10-09T01:32:18;96173.72;;;15.17;71.13
81608;BME280;71022;48.122;11.576;2023-10-09T01:34:47;96169.75;;;15.18;71.32
81608;BME280;71022;48.122;11.576;2023-10-09T01:37:23;96168.28;;;15.24;70.92
81608;BME280;71022;48.122;11.576;2023-10-09T01:39:57;96171.50;;;15.26;70.71
81608;BME280;71022;48.122;11.576;2023-10-09T01:42:47;96172.97;;;15.20;70.86
81608;BME280;71022;48.122;11.576;2023-10-09T01:45:14;96169.91;;;15.25;70.66
81608;BME280;71022;48.122;11.576;2023-10-09T01:47:48;96168.41;;;15.31;70.41
81608;BME280;71022;48.122;11.576;2023-10-09T01:50:23;96163.00;;;15.38;70.64
81608;BME280;71022;48.122;11.576;2023-10-09T01:53:02;96160.66;;;15.40;70.05
81608;BME280;71022;48.122;11.576;2023-10-09T01:55:38;96148.19;;;15.27;70.11
81608;BME280;71022;48.122;11.576;2023-10-09T01:58:14;96156.47;;;15.27;70.48
81608;BME280;71022;48.122;11.576;2023-10-09T02:00:48;96157.97;;;15.21;71.05
81608;BME280;71022;48.122;11.576;2023-10-09T02:03:21;96152.75;;;15.16;70.75
81608;BME280;71022;48.122;11.576;2023-10-09T02:05:53;96146.16;;;15.24;70.68
81608;BME280;71022;48.122;11.576;2023-10-09T02:08:21;96151.13;;;15.37;70.45
81608;BME280;71022;48.122;11.576;2023-10-09T02:11:03;96139.03;;;15.23;70.46
81608;BME280;71022;48.122;11.576;2023-10-09T02:13:30;96134.72;;;15.25;70.35
81608;BME280;71022;48.122;11.576;2023-10-09T02:16:04;96142.44;;;15.39;69.89
81608;BME280;71022;48.122;11.576;2023-10-09T02:18:55;96132.13;;;15.36;70.23
81608;BME280;71022;48.122;11.576;2023-10-09T02:21:35;96131.28;;;15.32;70.03
81608;BME280;71022;48.122;11.576;2023-10-09T02:24:09;96132.88;;;15.33;69.65
81608;BME280;71022;48.122;11.576;2023-10-09T02:26:36;96123.28;;;15.27;69.77
81608;BME280;71022;48.122;11.576;2023-10-09T02:29:30;96121.84;;;15.36;69.03
81608;BME280;71022;48.122;11.576;2023-10-09T02:32:02;96118.81;;;15.19;69.41
81608;BME280;71022;48.122;11.576;2023-10-09T02:34:40;96122.44;;;15.23;69.47
81608;BME280;71022;48.122;11.576;2023-10-09T02:37:11;96112.84;;;15.17;69.43
81608;BME280;71022;48.122;11.576;2023-10-09T02:39:40;96120.03;;;15.21;69.46
81608;BME280;71022;48.122;11.576;2023-10-09T02:42:15;96113.56;;;15.36;69.10
81608;BME280;71022;48.122;11.576;2023-10-09T02:44:42;96113.06;;;15.31;69.66
81608;BME280;71022;48.122;11.576;2023-10-09T02:47:21;96110.19;;;15.24;69.80
81608;BME280;71022;48.122;11.576;2023-10-09T02:49:56;96108.75;;;15.33;69.70
81608;BME280;71022;48.122;11.576;2023-10-09T02:52:48;96104.34;;;15.29;69.17
81608;BME280;71022;48.122;11.576;2023-10-09T02:55:33;96106.66;;;15.27;69.40
81608;BME280;71022;48.122;11.576;2023-10-09T02:58:05;96097.53;;;15.23;69.74
81608;BME280;71022;48.122;11.576;2023-10-09T03:00:38;96101.41;;;15.18;69.96
81608;BME280;71022;48.122;11.576;2023-10-09T03:03:06;96099.31;;;15.12;70.16
81608;BME280;71022;48.122;11.576;2023-10-09T03:05:40;96090.44;;;14.99;70.35
81608;BME280;71022;48.122;11.576;2023-10-09T03:08:09;96094.47;;;15.05;70.26
81608;BME280;71022;48.122;11.576;2023-10-09T03:10:39;96094.03;;;15.03;70.23
81608;BME280;71022;48.122;11.576;2023-10-09T03:13:11;96097.28;;;15.09;69.92
81608;BME280;71022;48.122;11.576;2023-10-09T03:15:46;96100.09;;;15.12;69.56
81608;BME280;71022;48.122;11.576;2023-10-09T03:18:15;96095.97;;;14.99;69.57
81608;BME280;71022;48.122;11.576;2023-10-09T03:20:45;96090.03;;;15.01;69.63
81608;BME280;71022;48.122;11.576;2023-10-09T03:23:13;96084.81;;;14.95;69.91
81608;BME280;71022;48.122;11.576;2023-10-09T03:25:41;96082.47;;;14.98;69.87
81608;BME280;71022;48.122;11.576;2023-10-09T03:28:12;96072.09;;;14.91;70.01
81608;BME280;71022;48.122;11.576;2023-10-09T03:30:42;96078.56;;;14.99;69.96
81608;BME280;71022;48.122;11.576;2023-10-09T03:33:14;96072.28;;;15.02;69.58
81608;BME280;71022;48.122;11.576;2023-10-09T03:35:43;96070.75;;;15.04;69.58
81608;BME280;71022;48.122;11.576;2023-10-09T03:38:10;96067.59;;;15.06;68.43
81608;BME280;71022;48.122;11.576;2023-10-09T03:40:44;96065.66;;;14.83;69.04
81608;BME280;71022;48.122;11.576;2023-10-09T03:43:15;96055.44;;;14.87;69.41
81608;BME280;71022;48.122;11.576;2023-10-09T03:45:43;96064.91;;;14.86;68.67
81608;BME280;71022;48.122;11.576;2023-10-09T03:48:24;96067.13;;;14.77;69.89
81608;BME280;71022;48.122;11.576;2023-10-09T03:50:59;96067.47;;;14.76;69.80
81608;BME280;71022;48.122;11.576;2023-10-09T03:53:36;96069.28;;;14.65;69.83
81608;BME280;71022;48.122;11.576;2023-10-09T03:56:06;96070.13;;;14.69;69.85
81608;BME280;71022;48.122;11.576;2023-10-09T03:58:39;96066.81;;;14.82;69.43
81608;BME280;71022;48.122;11.576;2023-10-09T04:01:13;96063.19;;;14.78;69.55
81608;BME280;71022;48.122;11.576;2023-10-09T04:03:59;96061.22;;;14.79;69.63
81608;BME280;71022;48.122;11.576;2023-10-09T04:06:30;96061.69;;;14.84;69.50
81608;BME280;71022;48.122;11.576;2023-10-09T04:09:00;96060.00;;;14.76;69.38
81608;BME280;71022;48.122;11.576;2023-10-09T04:11:40;96070.72;;;14.81;69.22
81608;BME280;71022;48.122;11.576;2023-10-09T04:14:13;96064.53;;;14.88;68.85
81608;BME280;71022;48.122;11.576;2023-10-09T04:16:51;96068.72;;;14.78;69.30
81608;BME280;71022;48.122;11.576;2023-10-09T04:19:19;96072.75;;;14.84;69.00
81608;BME280;71022;48.122;11.576;2023-10-09T04:21:49;96071.59;;;14.85;69.12
81608;BME280;71022;48.122;11.576;2023-10-09T04:24:16;96059.81;;;14.88;69.13
81608;BME280;71022;48.122;11.576;2023-10-09T04:26:44;96058.44;;;14.79;69.13
81608;BME280;71022;48.122;11.576;2023-10-09T04:29:15;96064.78;;;14.79;68.80
81608;BME280;71022;48.122;11.576;2023-10-09T04:31:57;96060.13;;;14.83;68.36
81608;BME280;71022;48.122;11.576;2023-10-09T04:34:27;96055.94;;;14.70;69.30
81608;BME280;71022;48.122;11.576;2023-10-09T04:36:56;96060.31;;;14.71;69.01
81608;BME280;71022;48.122;11.576;2023-10-09T04:39:52;96059.63;;;14.55;69.43
81608;BME280;71022;48.122;11.576;2023-10-09T04:42:38;96054.88;;;14.56;69.70
81608;BME280;71022;48.122;11.576;2023-10-09T04:45:06;96062.53;;;14.62;69.25
81608;BME280;71022;48.122;11.576;2023-10-09T04:47:37;96051.16;;;14.67;69.52
81608;BME280;71022;48.122;11.576;2023-10-09T04:50:10;96064.53;;;14.65;69.40
81608;BME280;71022;48.122;11.576;2023-10-09T04:52:56;96061.34;;;14.63;69.42
81608;BME280;71022;48.122;11.576;2023-10-09T04:55:32;96067.72;;;14.67;69.33
81608;BME280;71022;48.122;11.576;2023-10-09T04:58:05;96062.41;;;14.78;69.14
81608;BME280;71022;48.122;11.576;2023-10-09T05:00:36;96061.53;;;14.74;69.24
81608;BME280;71022;48.122;11.576;2023-10-09T05:03:09;96064.31;;;14.74;69.39
81608;BME280;71022;48.122;11.576;2023-10-09T05:05:39;96057.41;;;14.64;69.32
81608;BME280;71022;48.122;11.576;2023-10-09T05:08:16;96058.88;;;14.58;69.63
81608;BME280;71022;48.122;11.576;2023-10-09T05:10:49;96058.03;;;14.54;69.66
81608;BME280;71022;48.122;11.576;2023-10-09T05:13:28;96064.31;;;14.51;69.43
81608;BME280;71022;48.122;11.576;2023-10-09T05:16:17;96065.13;;;14.55;69.95
81608;BME280;71022;48.122;11.576;2023-10-09T05:18:56;96057.50;;;14.49;69.85
81608;BME280;71022;48.122;11.576;2023-10-09T05:21:33;96066.59;;;14.49;69.85
81608;BME280;71022;48.122;11.576;2023-10-09T05:24:12;96069.81;;;14.51;69.90
81608;BME280;71022;48.122;11.576;2023-10-09T05:26:47;96065.75;;;14.45;70.21
81608;BME280;71022;48.122;11.576;2023-10-09T05:29:21;96078.03;;;14.48;70.38
81608;BME280;71022;48.122;11.576;2023-10-09T05:32:04;96079.69;;;14.52;70.44
81608;BME280;71022;48.122;11.576;2023-10-09T05:34:42;96080.88;;;14.51;70.60
81608;BME280;71022;48.122;11.576;2023-10-09T05:37:30;96081.72;;;14.55;70.57
81608;BME280;71022;48.122;11.576;2023-10-09T05:40:04;96082.47;;;14.52;70.75
81608;BME280;71022;48.122;11.576;2023-10-09T05:42:45;96091.19;;;14.54;70.51
81608;BME280;71022;48.122;11.576;2023-10-09T05:45:15;96098.25;;;14.52;70.53
81608;BME280;71022;48.122;11.576;2023-10-09T05:47:47;96096.31;;;14.75;69.91
81608;BME280;71022;48.122;11.576;2023-10-09T05:50:30;96092.06;;;14.58;70.33
81608;BME280;71022;48.122;11.576;2023-10-09T05:53:02;96098.94;;;14.45;70.50
81608;BME280;71022;48.122;11.576;2023-10-09T05:55:30;96095.84;;;14.50;70.20
81608;BME280;71022;48.122;11.576;2023-10-09T05:58:16;96093.41;;;14.45;70.45
81608;BME280;71022;48.122;11.576;2023-10-09T06:01:02;96087.00;;;14.41;70.44
81608;BME280;71022;48.122;11.576;2023-10-09T06:04:05;96086.13;;;14.37;70.91
81608;BME280;71022;48.122;11.576;2023-10-09T06:06:47;96084.66;;;14.43;70.64
81608;BME280;71022;48.122;11.576;2023-10-09T06:09:24;96089.38;;;14.43;70.73
81608;BME280;71022;48.122;11.576;2023-10-09T06:12:10;96090.09;;;14.39;70.32
81608;BME280;71022;48.122;11.576;2023-10-09T06:14:56;96085.69;;;14.54;69.68
81608;BME280;71022;48.122;11.576;2023-10-09T06:17:47;96100.47;;;14.65;69.58
81608;BME280;71022;48.122;11.576;2023-10-09T06:20:18;96103.69;;;14.90;69.19
81608;BME280;71022;48.122;11.576;2023-10-09T06:23:08;96089.06;;;14.89;69.38
81608;BME280;71022;48.122;11.576;2023-10-09T06:25:48;96086.31;;;14.89;69.17
81608;BME280;71022;48.122;11.576;2023-10-09T06:28:19;96082.59;;;15.05;69.11
81608;BME280;71022;48.122;11.576;2023-10-09T06:31:33;96098.69;;;15.22;68.01
81608;BME280;71022;48.122;11.576;2023-10-09T06:34:57;96089.44;;;15.37;67.75
81608;BME280;71022;48.122;11.576;2023-10-09T06:37:49;96093.50;;;15.43;67.86
81608;BME280;71022;48.122;11.576;2023-10-09T06:40:32;96091.28;;;15.52;66.90
81608;BME280;71022;48.122;11.576;2023-10-09T06:43:20;96106.41;;;15.58;66.84
81608;BME280;71022;48.122;11.576;2023-10-09T06:45:51;96101.69;;;15.62;66.74
81608;BME280;71022;48.122;11.576;2023-10-09T06:48:26;96106.03;;;15.86;66.76
81608;BME280;71022;48.122;11.576;2023-10-09T06:51:13;96106.03;;;15.89;66.96
81608;BME280;71022;48.122;11.576;2023-10-09T06:53:54;96109.38;;;16.02;65.65
81608;BME280;71022;48.122;11.576;2023-10-09T06:56:26;96103.03;;;16.01;65.83
81608;BME280;71022;48.122;11.576;2023-10-09T06:59:01;96105.28;;;15.92;66.26
81608;BME280;71022;48.122;11.576;2023-10-09T07:01:42;96097.00;;;15.92;66.60
81608;BME280;71022;48.122;11.576;2023-10-09T07:04:14;96099.44;;;15.97;66.47
81608;BME280;71022;48.122;11.576;2023-10-09T07:07:08;96109.06;;;16.07;66.12
81608;BME280;71022;48.122;11.576;2023-10-09T07:09:37;96111.88;;;16.11;66.30
81608;BME280;71022;48.122;11.576;2023-10-09T07:12:11;96108.78;;;16.16;65.65
81608;BME280;71022;48.122;11.576;2023-10-09T07:14:50;96109.72;;;16.27;65.43
81608;BME280;71022;48.122;11.576;2023-10-09T07:17:17;96116.19;;;16.38;64.71
81608;BME280;71022;48.122;11.576;2023-10-09T07:20:00;96125.53;;;16.56;63.79
81608;BME280;71022;48.122;11.576;2023-10-09T07:23:04;96119.06;;;16.78;63.21
81608;BME280;71022;48.122;11.576;2023-10-09T07:25:43;96130.28;;;16.92;62.74
81608;BME280;71022;48.122;11.576;2023-10-09T07:28:25;96125.47;;;17.30;62.17
81608;BME280;71022;48.122;11.576;2023-10-09T07:31:17;96139.41;;;17.37;62.22
81608;BME280;71022;48.122;11.576;2023-10-09T07:33:56;96138.88;;;17.64;61.47
81608;BME280;71022;48.122;11.576;2023-10-09T07:36:25;96136.81;;;18.12;60.08
81608;BME280;71022;48.122;11.576;2023-10-09T07:39:05;96140.16;;;18.43;59.05
81608;BME280;71022;48.122;11.576;2023-10-09T07:41:43;96121.56;;;18.57;57.88
81608;BME280;71022;48.122;11.576;2023-10-09T07:44:23;96132.50;;;19.65;54.15
81608;BME280;71022;48.122;11.576;2023-10-09T07:47:06;96127.50;;;20.57;50.01
81608;BME280;71022;48.122;11.576;2023-10-09T07:49:52;96124.09;;;21.01;48.90
81608;BME280;71022;48.122;11.576;2023-10-09T07:52:21;96120.84;;;21.06;47.48
81608;BME280;71022;48.122;11.576;2023-10-09T07:54:49;96127.91;;;21.35;47.50
81608;BME280;71022;48.122;11.576;2023-10-09T07:57:29;96123.50;;;21.34;46.68
81608;BME280;71022;48.122;11.576;2023-10-09T08:00:06;96126.06;;;21.04;47.19
81608;BME280;71022;48.122;11.576;2023-10-09T08:02:59;96130.16;;;20.82;47.67
81608;BME280;71022;48.122;11.576;2023-10-09T08:05:28;96128.25;;;20.72;47.83
81608;BME280;71022;48.122;11.576;2023-10-09T08:08:01;96133.13;;;20.50;48.21
81608;BME280;71022;48.122;11.576;2023-10-09T08:11:06;96133.97;;;20.29;48.18
81608;BME280;71022;48.122;11.576;2023-10-09T08:13:52;96137.97;;;20.21;48.03
81608;BME280;71022;48.122;11.576;2023-10-09T08:16:28;96141.16;;;20.16;47.83
81608;BME280;71022;48.122;11.576;2023-10-09T08:19:04;96149.16;;;20.00;48.64
81608;BME280;71022;48.122;11.576;2023-10-09T08:21:52;96144.34;;;20.04;47.94
81608;BME280;71022;48.122;11.576;2023-10-09T08:24:54;96153.09;;;20.13;48.18
81608;BME280;71022;48.122;11.576;2023-10-09T08:27:26;96157.50;;;20.28;48.13
81608;BME280;71022;48.122;11.576;2023-10-09T08:30:02;96152.16;;;20.73;46.69
81608;BME280;71022;48.122;11.576;2023-10-09T08:32:49;96155.19;;;21.14;46.27
81608;BME280;71022;48.122;11.576;2023-10-09T08:35:36;96149.25;;;21.60;45.08
81608;BME280;71022;48.122;11.576;2023-10-09T08:38:17;96157.22;;;21.65;45.11
81608;BME280;71022;48.122;11.576;2023-10-09T08:40:51;96154.41;;;21.68;44.25
81608;BME280;71022;48.122;11.576;2023-10-09T08:43:26;96157.13;;;21.72;43.96
81608;BME280;71022;48.122;11.576;2023-10-09T08:45:59;96159.78;;;21.93;43.99
81608;BME280;71022;48.122;11.576;2023-10-09T08:48:30;96156.25;;;21.85;43.90
81608;BME280;71022;48.122;11.576;2023-10-09T08:50:58;96154.63;;;21.84;43.34
81608;BME280;71022;48.122;11.576;2023-10-09T08:53:28;96146.19;;;21.43;43.92
81608;BME280;71022;48.122;11.576;2023-10-09T08:55:58;96151.09;;;21.25;45.09
81608;BME280;71022;48.122;11.576;2023-10-09T08:58:26;96153.19;;;21.04;45.10
81608;BME280;71022;48.122;11.576;2023-10-09T09:01:02;96151.63;;;20.99;45.71
81608;BME280;71022;48.122;11.576;2023-10-09T09:03:41;96159.25;;;20.88;46.38
81608;BME280;71022;48.122;11.576;2023-10-09T09:06:11;96159.69;;;20.83;46.09
81608;BME280;71022;48.122;11.576;2023-10-09T09:08:43;96165.72;;;20.71;48.11
81608;BME280;71022;48.122;11.576;2023-10-09T09:11:14;96156.59;;;20.67;47.00
81608;BME280;71022;48.122;11.576;2023-10-09T09:14:06;96155.00;;;20.66;47.28
81608;BME280;71022;48.122;11.576;2023-10-09T09:16:40;96153.78;;;20.67;46.37
81608;BME280;71022;48.122;11.576;2023-10-09T09:19:11;96161.75;;;20.65;46.92
81608;BME280;71022;48.122;11.576;2023-10-09T09:21:50;96168.44;;;20.85;45.90
81608;BME280;71022;48.122;11.576;2023-10-09T09:24:22;96163.28;;;20.80;45.89
81608;BME280;71022;48.122;11.576;2023-10-09T09:26:51;96168.84;;;20.87;46.64
81608;BME280;71022;48.122;11.576;2023-10-09T09:32:06;96176.69;;;21.20;45.64
81608;BME280;71022;48.122;11.576;2023-10-09T09:34:52;96174.28;;;21.22;44.90
81608;BME280;71022;48.122;11.576;2023-10-09T09:37:25;96165.78;;;21.36;44.38
81608;BME280;71022;48.122;11.576;2023-10-09T09:39:58;96170.19;;;21.37;45.35
81608;BME280;71022;48.122;11.576;2023-10-09T09:42:28;96178.13;;;21.42;44.73
81608;BME280;71022;48.122;11.576;2023-10-09T09:45:00;96172.91;;;21.48;43.91
81608;BME280;71022;48.122;11.576;2023-10-09T09:47:29;96177.69;;;21.47;44.38
81608;BME280;71022;48.122;11.576;2023-10-09T09:49:58;96177.31;;;21.45;45.48
81608;BME280;71022;48.122;11.576;2023-10-09T09:52:30;96170.91;;;21.48;44.53
81608;BME280;71022;48.122;11.576;2023-10-09T09:55:08;96166.50;;;21.47;45.26
81608;BME280;71022;48.122;11.576;2023-10-09T09:57:45;96172.06;;;21.55;43.37
81608;BME280;71022;48.122;11.576;2023-10-09T10:00:13;96162.94;;;21.47;44.62
81608;BME280;71022;48.122;11.576;2023-10-09T10:06:05;96178.47;;;21.51;42.66
81608;BME280;71022;48.122;11.576;2023-10-09T10:08:41;96179.66;;;21.50;43.68
81608;BME280;71022;48.122;11.576;2023-10-09T10:11:41;96178.84;;;21.53;45.06
81608;BME280;71022;48.122;11.576;2023-10-09T10:14:08;96177.19;;;21.60;43.74
81608;BME280;71022;48.122;11.576;2023-10-09T10:20:08;96185.16;;;21.65;42.56
81608;BME280;71022;48.122;11.576;2023-10-09T10:22:44;96184.28;;;21.75;42.46
81608;BME280;71022;48.122;11.576;2023-10-09T10:25:32;96174.59;;;21.86;42.01
81608;BME280;71022;48.122;11.576;2023-10-09T10:28:20;96180.50;;;21.99;41.15
81608;BME280;71022;48.122;11.576;2023-10-09T10:31:16;96187.25;;;22.05;43.04
81608;BME280;71022;48.122;11.576;2023-10-09T10:36:24;96179.13;;;22.21;40.86
81608;BME280;71022;48.122;11.576;2023-10-09T10:39:10;96168.28;;;22.23;40.60
81608;BME280;71022;48.122;11.576;2023-10-09T10:41:39;96170.63;;;22.28;40.14
81608;BME280;71022;48.122;11.576;2023-10-09T10:44:30;96177.38;;;22.34;40.78
81608;BME280;71022;48.122;11.576;2023-10-09T10:47:02;96172.22;;;22.29;39.99
81608;BME280;71022;48.122;11.576;2023-10-09T10:49:29;96167.78;;;22.35;40.55
81608;BME280;71022;48.122;11.576;2023-10-09T10:52:04;96164.69;;;22.23;40.96
81608;BME280;71022;48.122;11.576;2023-10-09T10:54:49;96164.59;;;22.33;39.53
81608;BME280;71022;48.122;11.576;2023-10-09T10:57:45;96160.63;;;22.31;39.64
81608;BME280;71022;48.122;11.576;2023-10-09T11:00:28;96154.75;;;22.18;39.08
81608;BME280;71022;48.122;11.576;2023-10-09T11:03:21;96162.34;;;22.18;38.54
81608;BME280;71022;48.122;11.576;2023-10-09T11:06:03;96164.34;;;22.17;39.21
81608;BME280;71022;48.122;11.576;2023-10-09T11:08:46;96161.38;;;22.35;38.11
81608;BME280;71022;48.122;11.576;2023-10-09T11:11:24;96159.34;;;22.39;39.04
81608;BME280;71022;48.122;11.576;2023-10-09T11:14:09;96155.38;;;22.36;38.95
81608;BME280;71022;48.122;11.576;2023-10-09T11:16:43;96158.06;;;22.43;39.19
81608;BME280;71022;48.122;11.576;2023-10-09T11:19:12;96157.31;;;22.43;38.33
81608;BME280;71022;48.122;11.576;2023-10-09T11:22:26;96136.44;;;22.47;38.02
81608;BME280;71022;48.122;11.576;2023-10-09T11:25:28;96133.94;;;22.56;38.41
81608;BME280;71022;48.122;11.576;2023-10-09T11:27:57;96144.06;;;22.81;38.11
81608;BME280;71022;48.122;11.576;2023-10-09T11:30:41;96143.31;;;23.07;36.65
81608;BME280;71022;48.122;11.576;2023-10-09T11:33:13;96139.59;;;23.17;36.59
81608;BME280;71022;48.122;11.576;2023-10-09T11:35:55;96131.19;;;23.17;35.52
81608;BME280;71022;48.122;11.576;2023-10-09T11:38:24;96143.50;;;23.23;37.17
81608;BME280;71022;48.122;11.576;2023-10-09T11:40:53;96147.78;;;23.31;35.35
81608;BME280;71022;48.122;11.576;2023-10-09T11:43:20;96136.88;;;23.10;34.57
81608;BME280;71022;48.122;11.576;2023-10-09T11:46:10;96128.16;;;23.31;34.96
81608;BME280;71022;48.122;11.576;2023-10-09T11:49:08;96133.53;;;23.49;34.76
81608;BME280;71022;48.122;11.576;2023-10-09T11:51:47;96122.75;;;23.47;34.79
81608;BME280;71022;48.122;11.576;2023-10-09T11:54:34;96129.75;;;23.32;34.74
81608;BME280;71022;48.122;11.576;2023-10-09T11:57:05;96120.81;;;23.14;34.63
81608;BME280;71022;48.122;11.576;2023-10-09T11:59:33;96114.97;;;23.01;34.37
81608;BME280;71022;48.122;11.576;2023-10-09T12:02:09;96127.56;;;22.90;34.86
81608;BME280;71022;48.122;11.576;2023-10-09T12:04:40;96137.91;;;22.93;34.68
81608;BME280;71022;48.122;11.576;2023-10-09T12:07:13;96134.47;;;22.82;33.96
81608;BME280;71022;48.122;11.576;2023-10-09T12:09:40;96126.44;;;22.84;34.81
81608;BME280;71022;48.122;11.576;2023-10-09T12:12:08;96131.84;;;22.98;35.32
81608;BME280;71022;48.122;11.576;2023-10-09T12:14:39;96121.50;;;22.91;35.00
81608;BME280;71022;48.122;11.576;2023-10-09T12:17:08;96128.59;;;22.73;34.53
81608;BME280;71022;48.122;11.576;2023-10-09T12:19:38;96130.25;;;22.67;34.05
81608;BME280;71022;48.122;11.576;2023-10-09T12:22:07;96124.34;;;22.57;34.24
81608;BME280;71022;48.122;11.576;2023-10-09T12:24:38;96118.31;;;22.59;33.81
81608;BME280;71022;48.122;11.576;2023-10-09T12:27:05;96126.00;;;22.51;34.98
81608;BME280;71022;48.122;11.576;2023-10-09T12:29:38;96122.78;;;22.53;34.74
81608;BME280;71022;48.122;11.576;2023-10-09T12:32:12;96127.50;;;22.59;35.37
81608;BME280;71022;48.122;11.576;2023-10-09T12:34:39;96122.81;;;22.49;34.90
81608;BME280;71022;48.122;11.576;2023-10-09T12:37:09;96123.56;;;22.53;34.79
81608;BME280;71022;48.122;11.576;2023-10-09T12:39:36;96119.06;;;22.29;35.42
81608;BME280;71022;48.122;11.576;2023-10-09T12:42:07;96134.44;;;22.11;36.06
81608;BME280;71022;48.122;11.576;2023-10-09T12:44:36;96132.13;;;22.02;35.98
81608;BME280;71022;48.122;11.576;2023-10-09T12:47:06;96134.94;;;22.02;36.57
81608;BME280;71022;48.122;11.576;2023-10-09T12:49:34;96137.41;;;21.93;35.86
81608;BME280;71022;48.122;11.576;2023-10-09T12:52:01;96139.31;;;22.03;35.89
81608;BME280;71022;48.122;11.576;2023-10-09T12:54:28;96145.81;;;21.93;36.26
81608;BME280;71022;48.122;11.576;2023-10-09T12:56:56;96145.81;;;21.89;36.86
81608;BME280;71022;48.122;11.576;2023-10-09T12:59:24;96148.44;;;22.11;36.66
81608;BME280;71022;48.122;11.576;2023-10-09T13:01:52;96140.59;;;21.95;38.37
81608;BME280;71022;48.122;11.576;2023-10-09T13:04:24;96137.00;;;21.94;37.92
81608;BME280;71022;48.122;11.576;2023-10-09T13:06:59;96146.63;;;21.86;39.31
81608;BME280;71022;48.122;11.576;2023-10-09T13:09:30;96146.94;;;21.99;37.20
81608;BME280;71022;48.122;11.576;2023-10-09T13:12:10;96145.84;;;21.86;38.32
81608;BME280;71022;48.122;11.576;2023-10-09T13:14:46;96140.38;;;21.72;39.37
81608;BME280;71022;48.122;11.576;2023-10-09T13:17:16;96148.44;;;21.63;38.57
81608;BME280;71022;48.122;11.576;2023-10-09T13:19:44;96149.25;;;21.60;40.19
81608;BME280;71022;48.122;11.576;2023-10-09T13:22:11;96147.97;;;21.71;38.82
81608;BME280;71022;48.122;11.576;2023-10-09T13:24:41;96150.72;;;21.75;38.52
81608;BME280;71022;48.122;11.576;2023-10-09T13:27:09;96153.63;;;21.64;40.06
81608;BME280;71022;48.122;11.576;2023-10-09T13:29:37;96149.06;;;21.81;39.21
81608;BME280;71022;48.122;11.576;2023-10-09T13:32:07;96161.16;;;21.71;40.33
81608;BME280;71022;48.122;11.576;2023-10-09T13:34:42;96151.53;;;21.72;39.86
81608;BME280;71022;48.122;11.576;2023-10-09T13:37:11;96161.25;;;21.57;40.15
81608;BME280;71022;48.122;11.576;2023-10-09T13:39:41;96154.78;;;21.67;40.59
81608;BME280;71022;48.122;11.576;2023-10-09T13:42:20;96160.00;;;21.65;40.80
81608;BME280;71022;48.122;11.576;2023-10-09T13:44:52;96154.00;;;21.63;40.16
81608;BME280;71022;48.122;11.576;2023-10-09T13:47:22;96147.75;;;21.48;40.71
81608;BME280;71022;48.122;11.576;2023-10-09T13:49:56;96147.00;;;21.40;40.53